Key Light — 3EYG2 — position and weather

sailwx.info

Track history (hours):
 
Tides and Currents Weather Stations Pressure Air Temp Water Temp Dewpoint Dewpoint Depression Visibility Wind Speed Wind Dir Waves Ship Positions

Key Light

Last reported at 2017-Oct-19 21:32 UTC. Time now 2017-Oct-20 12:44 UTC.
Position N 24°41' W 113°50'.

Length 229 m; draft 12 m.

Type: Cargo ship. MMSI: 357152000.

Date/timePositionNaut miles runAvg speedWind from/ knotsBaromVisibWave heightAir tempDewpointWater temp
2017-Oct-19 21:32N 24°41' W 113°50'012.1
2017-Oct-19 21:30N 24°41' W 113°50'611.8
2017-Oct-19 21:00N 24°45' W 113°55'1011.8
2017-Oct-19 20:08N 24°51' W 114°04'211.7
2017-Oct-19 19:57N 24°53' W 114°06'611.8
2017-Oct-19 19:27N 24°56' W 114°11'811.9
2017-Oct-19 18:44N 25°02' W 114°19'311.8
2017-Oct-19 18:29N 25°03' W 114°21'711.8
2017-Oct-19 17:55N 25°08' W 114°27'511.6
2017-Oct-19 17:29N 25°11' W 114°31'611.5
2017-Oct-19 17:00N 25°14' W 114°36'611.8
2017-Oct-19 16:27N 25°18' W 114°42'612.0
2017-Oct-19 16:00N 25°21' W 114°47'612.1
2017-Oct-19 15:30N 25°25' W 114°52'612.3
2017-Oct-19 15:01N 25°29' W 114°57'612.1
2017-Oct-19 14:30N 25°33' W 115°02'1011.7
2017-Oct-19 13:41N 25°38' W 115°11'212.5
2017-Oct-19 13:30N 25°40' W 115°13'611.7
2017-Oct-19 13:00N 25°43' W 115°18'712.2
2017-Oct-19 12:28N 25°48' W 115°24'612.4
2017-Oct-19 12:00N 25°51' W 115°29'612.5
2017-Oct-19 11:29N 25°55' W 115°34'612.6
2017-Oct-19 11:00N 25°59' W 115°40'612.9
2017-Oct-19 10:30N 26°03' W 115°45'612.4
2017-Oct-19 10:00N 26°07' W 115°51'612.9
2017-Oct-19 09:30N 26°11' W 115°56'712.7
2017-Oct-19 08:56N 26°15' W 116°03'1512.5
2017-Oct-19 07:45N 26°24' W 116°16'512.2
2017-Oct-19 07:21N 26°27' W 116°20'412.2
2017-Oct-19 07:00N 26°30' W 116°24'612.1
2017-Oct-19 06:29N 26°34' W 116°29'612.0
2017-Oct-19 06:00N 26°37' W 116°34'711.8
2017-Oct-19 05:25N 26°42' W 116°41'511.7
2017-Oct-19 04:59N 26°45' W 116°45'511.5
2017-Oct-19 04:30N 26°48' W 116°50'8611.4
2017-Oct-18 21:01N 27°41' W 118°06'012.2
2017-Oct-18 21:00N 27°41' W 118°06'1111.9
2017-Oct-18 20:05N 27°48' W 118°15'111.7
2017-Oct-18 20:00N 27°48' W 118°16'1312.0
2017-Oct-18 18:54N 27°56' W 118°28'11212.2
2017-Oct-18 09:44N 29°05' W 120°08'311.9
2017-Oct-18 09:30N 29°07' W 120°10'1511.8
2017-Oct-18 08:13N 29°16' W 120°24'411.8
2017-Oct-18 07:51N 29°19' W 120°28'412.0
2017-Oct-18 07:30N 29°21' W 120°32'911.8
2017-Oct-18 06:42N 29°27' W 120°40'611.9
2017-Oct-18 06:14N 29°31' W 120°45'312.0
2017-Oct-18 06:00N 29°32' W 120°48'612.1
2017-Oct-18 05:30N 29°36' W 120°53'612.1
2017-Oct-18 05:00N 29°40' W 120°59'612.0
2017-Oct-18 04:30N 29°43' W 121°04'612.0
2017-Oct-18 04:00N 29°47' W 121°10'1412.1
2017-Oct-18 02:50N 29°56' W 121°22'512.2
2017-Oct-18 02:25N 29°59' W 121°27'512.2
2017-Oct-18 02:00N 30°02' W 121°32'612.1
2017-Oct-18 01:30N 30°06' W 121°37'712.1
2017-Oct-18 00:57N 30°10' W 121°43'512.0
2017-Oct-18 00:30N 30°13' W 121°48'612.0
2017-Oct-18 00:00N 30°17' W 121°53'612.0
2017-Oct-17 23:30N 30°21' W 121°59'612.0
2017-Oct-17 23:00N 30°25' W 122°04'1012.1
2017-Oct-17 22:11N 30°31' W 122°13'212.3
2017-Oct-17 22:00N 30°32' W 122°15'612.1
2017-Oct-17 21:30N 30°36' W 122°21'612.3
2017-Oct-17 21:00N 30°40' W 122°27'612.5
2017-Oct-17 20:30N 30°43' W 122°33'612.3
2017-Oct-17 20:00N 30°47' W 122°38'1312.4
2017-Oct-17 18:59N 30°55' W 122°50'712.3
2017-Oct-17 18:25N 30°59' W 122°56'512.2
2017-Oct-17 18:00N 31°02' W 123°01'612.2
2017-Oct-17 17:30N 31°06' W 123°06'612.2
2017-Oct-17 17:00N 31°10' W 123°12'612.1
2017-Oct-17 16:30N 31°14' W 123°18'612.1
2017-Oct-17 16:00N 31°17' W 123°23'612.2
2017-Oct-17 15:30N 31°21' W 123°29'612.1
2017-Oct-17 15:00N 31°25' W 123°34'1312.0
2017-Oct-17 13:57N 31°33' W 123°46'2712.1
2017-Oct-17 11:43N 31°52' W 124°08'312.2
2017-Oct-17 11:28N 31°55' W 124°10'1512.2
2017-Oct-17 10:17N 32°07' W 124°19'312.2
2017-Oct-17 10:00N 32°10' W 124°21'612.2
2017-Oct-17 09:29N 32°15' W 124°25'612.1
2017-Oct-17 08:59N 32°20' W 124°29'612.1
2017-Oct-17 08:30N 32°25' W 124°32'612.1
2017-Oct-17 08:00N 32°30' W 124°36'612.3
2017-Oct-17 07:30N 32°36' W 124°40'612.4
2017-Oct-17 07:00N 32°41' W 124°44'812.2
2017-Oct-17 06:23N 32°47' W 124°49'512.3
2017-Oct-17 06:00N 32°51' W 124°52'612.8
2017-Oct-17 05:30N 32°57' W 124°56'712.6
2017-Oct-17 04:59N 33°02' W 124°60'612.7
2017-Oct-17 04:30N 33°07' W 125°04'612.4
2017-Oct-17 04:00N 33°13' W 125°08'612.3
2017-Oct-17 03:30N 33°18' W 125°12'612.1
2017-Oct-17 03:00N 33°23' W 125°15'612.1
2017-Oct-17 02:29N 33°28' W 125°19'612.1
2017-Oct-17 02:00N 33°33' W 125°23'612.2
2017-Oct-17 01:29N 33°39' W 125°27'612.2
2017-Oct-17 01:00N 33°43' W 125°31'612.1
2017-Oct-17 00:30N 33°49' W 125°35'1612.0
2017-Oct-16 23:07N 34°02' W 125°46'111.6
2017-Oct-16 23:00N 34°04' W 125°47'611.7
2017-Oct-16 22:30N 34°09' W 125°50'911.8
2017-Oct-16 21:46N 34°16' W 125°56'9912.0
2017-Oct-16 13:28N 35°40' W 127°00'  
2017-Oct-13 11:52N 48°16' W 125°46'410.6
2017-Oct-13 11:28N 48°18' W 125°41'510.7
2017-Oct-13 11:00N 48°21' W 125°35'510.6
2017-Oct-13 10:30N 48°24' W 125°28'510.5
2017-Oct-13 10:00N 48°28' W 125°22'510.6
2017-Oct-13 09:29N 48°31' W 125°15'511.1
2017-Oct-13 09:00N 48°31' W 125°07'612.4
2017-Oct-13 08:30N 48°31' W 124°58'612.6
2017-Oct-13 08:00N 48°31' W 124°48'612.3
2017-Oct-13 07:30N 48°30' W 124°40'612.7
2017-Oct-13 07:00N 48°27' W 124°31'612.5
2017-Oct-13 06:30N 48°25' W 124°22'612.3
2017-Oct-13 06:00N 48°22' W 124°14'612.4
2017-Oct-13 05:30N 48°20' W 124°05'611.7
2017-Oct-13 05:00N 48°18' W 123°57'612.0
2017-Oct-13 04:30N 48°17' W 123°48'611.8
2017-Oct-13 04:00N 48°16' W 123°39'611.0
2017-Oct-13 03:30N 48°16' W 123°31'510.2
2017-Oct-13 03:00N 48°20' W 123°27'4 8.4
2017-Oct-13 02:30N 48°23' W 123°22'510.9
2017-Oct-13 02:00N 48°24' W 123°14'611.5
2017-Oct-13 01:31N 48°30' W 123°12'713.8
2017-Oct-13 01:00N 48°37' W 123°14'611.5
2017-Oct-13 00:30N 48°42' W 123°13'714.2
2017-Oct-13 00:00N 48°46' W 123°03'611.4
2017-Oct-12 23:30N 48°51' W 123°02'713.1
2017-Oct-12 23:00N 48°56' W 123°08'5 9.0
2017-Oct-12 22:30N 49°01' W 123°09'0 0.1
2017-Oct-12 19:10N 49°01' W 123°09'0 0.0
2017-Oct-12 18:58N 49°01' W 123°09'0 0.0
2017-Oct-12 18:28N 49°01' W 123°09'0 0.0
2017-Oct-12 15:49N 49°01' W 123°09'0 0.0
2017-Oct-12 15:19N 49°01' W 123°09'0 0.0
2017-Oct-12 08:07N 49°01' W 123°09'0 0.0
2017-Oct-12 07:43N 49°01' W 123°09'0 0.0
2017-Oct-12 07:28N 49°01' W 123°09'0 0.0
2017-Oct-12 03:22N 49°01' W 123°09'0 0.0
2017-Oct-12 01:04N 49°01' W 123°09'16 0.7
2017-Oct-10 23:58N 49°17' W 123°12'0 0.1
2017-Oct-10 23:28N 49°17' W 123°12'0 0.1
2017-Oct-10 22:58N 49°17' W 123°12'0 0.0
2017-Oct-10 22:28N 49°17' W 123°12'0 0.0
2017-Oct-10 21:58N 49°17' W 123°12'0 0.0
2017-Oct-10 21:28N 49°17' W 123°12'0 0.0
2017-Oct-10 20:58N 49°17' W 123°12'0 0.0
2017-Oct-10 20:28N 49°17' W 123°12'0 0.1
2017-Oct-10 19:58N 49°17' W 123°12'0 0.0
2017-Oct-10 19:28N 49°17' W 123°12'0 0.0
2017-Oct-10 18:58N 49°17' W 123°12'0 0.2
2017-Oct-10 18:22N 49°17' W 123°12'0 0.1
2017-Oct-10 17:58N 49°17' W 123°12'0 0.0
2017-Oct-10 17:28N 49°17' W 123°12'0 0.1
2017-Oct-10 16:58N 49°17' W 123°12'0 0.2
2017-Oct-10 16:28N 49°17' W 123°12'0 0.1
2017-Oct-10 15:58N 49°17' W 123°12'0 0.0
2017-Oct-10 15:28N 49°17' W 123°12'0 0.1
2017-Oct-10 14:58N 49°17' W 123°12'0 0.0
2017-Oct-10 13:58N 49°17' W 123°12'0 0.0
2017-Oct-10 13:28N 49°17' W 123°12'0 0.0
2017-Oct-10 12:55N 49°17' W 123°12'0 0.1
2017-Oct-10 12:28N 49°17' W 123°12'0 0.1
2017-Oct-10 11:55N 49°17' W 123°12'0 0.0
2017-Oct-10 11:28N 49°17' W 123°12'0 0.0
2017-Oct-10 10:58N 49°17' W 123°12'0 0.0
2017-Oct-10 10:28N 49°17' W 123°12'0 0.1
2017-Oct-10 09:58N 49°17' W 123°12'0 0.1
2017-Oct-10 09:28N 49°17' W 123°12'0 0.0
2017-Oct-10 08:58N 49°17' W 123°12'0 0.1
2017-Oct-10 08:28N 49°17' W 123°12'0 0.1
2017-Oct-10 07:58N 49°17' W 123°12'0 0.2
2017-Oct-10 07:28N 49°17' W 123°12'0 0.1
2017-Oct-10 06:58N 49°17' W 123°12'0 0.0
2017-Oct-10 06:28N 49°17' W 123°12'0 0.1
2017-Oct-10 05:58N 49°17' W 123°12'0 0.1
2017-Oct-10 05:25N 49°17' W 123°12'0 0.0
2017-Oct-10 04:58N 49°17' W 123°12'0 0.0
2017-Oct-10 04:28N 49°17' W 123°12'0 0.1
2017-Oct-10 03:58N 49°17' W 123°12'0 0.1
2017-Oct-10 03:28N 49°17' W 123°12'0 0.1
2017-Oct-10 02:58N 49°17' W 123°12'0 0.1
2017-Oct-10 02:28N 49°17' W 123°12'0 0.0
2017-Oct-10 01:58N 49°17' W 123°12'0 0.1
2017-Oct-10 01:28N 49°17' W 123°12'0 0.0
2017-Oct-10 00:58N 49°17' W 123°12'0 0.1
2017-Oct-10 00:28N 49°17' W 123°12'0 0.0
2017-Oct-09 23:58N 49°17' W 123°12'0 0.0
2017-Oct-09 23:28N 49°17' W 123°12'0 0.0
2017-Oct-09 22:58N 49°17' W 123°12'0 0.0
2017-Oct-09 22:28N 49°17' W 123°12'0 0.0
2017-Oct-09 21:58N 49°17' W 123°12'  
Track history (hours):
 
Tides and Currents Weather Stations Pressure Air Temp Water Temp Dewpoint Dewpoint Depression Visibility Wind Speed Wind Dir Waves Ship Positions

Key Light

Last reported at 2017-Oct-19 21:32 UTC. Time now 2017-Oct-20 12:44 UTC.
Position N 24°41' W 113°50'.

Length 229 m; draft 12 m.

Type: Cargo ship. MMSI: 357152000.

Date/timePositionNaut miles runAvg speedWind from/ knotsBaromVisibWave heightAir tempDewpointWater temp
2017-Oct-19 21:32N 24°41' W 113°50'012.1
2017-Oct-19 21:30N 24°41' W 113°50'611.8
2017-Oct-19 21:00N 24°45' W 113°55'1011.8
2017-Oct-19 20:08N 24°51' W 114°04'211.7
2017-Oct-19 19:57N 24°53' W 114°06'611.8
2017-Oct-19 19:27N 24°56' W 114°11'811.9
2017-Oct-19 18:44N 25°02' W 114°19'311.8
2017-Oct-19 18:29N 25°03' W 114°21'711.8
2017-Oct-19 17:55N 25°08' W 114°27'511.6
2017-Oct-19 17:29N 25°11' W 114°31'611.5
2017-Oct-19 17:00N 25°14' W 114°36'611.8
2017-Oct-19 16:27N 25°18' W 114°42'612.0
2017-Oct-19 16:00N 25°21' W 114°47'612.1
2017-Oct-19 15:30N 25°25' W 114°52'612.3
2017-Oct-19 15:01N 25°29' W 114°57'612.1
2017-Oct-19 14:30N 25°33' W 115°02'1011.7
2017-Oct-19 13:41N 25°38' W 115°11'212.5
2017-Oct-19 13:30N 25°40' W 115°13'611.7
2017-Oct-19 13:00N 25°43' W 115°18'712.2
2017-Oct-19 12:28N 25°48' W 115°24'612.4
2017-Oct-19 12:00N 25°51' W 115°29'612.5
2017-Oct-19 11:29N 25°55' W 115°34'612.6
2017-Oct-19 11:00N 25°59' W 115°40'612.9
2017-Oct-19 10:30N 26°03' W 115°45'612.4
2017-Oct-19 10:00N 26°07' W 115°51'612.9
2017-Oct-19 09:30N 26°11' W 115°56'712.7
2017-Oct-19 08:56N 26°15' W 116°03'1512.5
2017-Oct-19 07:45N 26°24' W 116°16'512.2
2017-Oct-19 07:21N 26°27' W 116°20'412.2
2017-Oct-19 07:00N 26°30' W 116°24'612.1
2017-Oct-19 06:29N 26°34' W 116°29'612.0
2017-Oct-19 06:00N 26°37' W 116°34'711.8
2017-Oct-19 05:25N 26°42' W 116°41'511.7
2017-Oct-19 04:59N 26°45' W 116°45'511.5
2017-Oct-19 04:30N 26°48' W 116°50'8611.4
2017-Oct-18 21:01N 27°41' W 118°06'012.2
2017-Oct-18 21:00N 27°41' W 118°06'1111.9
2017-Oct-18 20:05N 27°48' W 118°15'111.7
2017-Oct-18 20:00N 27°48' W 118°16'1312.0
2017-Oct-18 18:54N 27°56' W 118°28'11212.2
2017-Oct-18 09:44N 29°05' W 120°08'311.9
2017-Oct-18 09:30N 29°07' W 120°10'1511.8
2017-Oct-18 08:13N 29°16' W 120°24'411.8
2017-Oct-18 07:51N 29°19' W 120°28'412.0
2017-Oct-18 07:30N 29°21' W 120°32'911.8
2017-Oct-18 06:42N 29°27' W 120°40'611.9
2017-Oct-18 06:14N 29°31' W 120°45'312.0
2017-Oct-18 06:00N 29°32' W 120°48'612.1
2017-Oct-18 05:30N 29°36' W 120°53'612.1
2017-Oct-18 05:00N 29°40' W 120°59'612.0
2017-Oct-18 04:30N 29°43' W 121°04'612.0
2017-Oct-18 04:00N 29°47' W 121°10'1412.1
2017-Oct-18 02:50N 29°56' W 121°22'512.2
2017-Oct-18 02:25N 29°59' W 121°27'512.2
2017-Oct-18 02:00N 30°02' W 121°32'612.1
2017-Oct-18 01:30N 30°06' W 121°37'712.1
2017-Oct-18 00:57N 30°10' W 121°43'512.0
2017-Oct-18 00:30N 30°13' W 121°48'612.0
2017-Oct-18 00:00N 30°17' W 121°53'612.0
2017-Oct-17 23:30N 30°21' W 121°59'612.0
2017-Oct-17 23:00N 30°25' W 122°04'1012.1
2017-Oct-17 22:11N 30°31' W 122°13'212.3
2017-Oct-17 22:00N 30°32' W 122°15'612.1
2017-Oct-17 21:30N 30°36' W 122°21'612.3
2017-Oct-17 21:00N 30°40' W 122°27'612.5
2017-Oct-17 20:30N 30°43' W 122°33'612.3
2017-Oct-17 20:00N 30°47' W 122°38'1312.4
2017-Oct-17 18:59N 30°55' W 122°50'712.3
2017-Oct-17 18:25N 30°59' W 122°56'512.2
2017-Oct-17 18:00N 31°02' W 123°01'612.2
2017-Oct-17 17:30N 31°06' W 123°06'612.2
2017-Oct-17 17:00N 31°10' W 123°12'612.1
2017-Oct-17 16:30N 31°14' W 123°18'612.1
2017-Oct-17 16:00N 31°17' W 123°23'612.2
2017-Oct-17 15:30N 31°21' W 123°29'612.1
2017-Oct-17 15:00N 31°25' W 123°34'1312.0
2017-Oct-17 13:57N 31°33' W 123°46'2712.1
2017-Oct-17 11:43N 31°52' W 124°08'312.2
2017-Oct-17 11:28N 31°55' W 124°10'1512.2
2017-Oct-17 10:17N 32°07' W 124°19'312.2
2017-Oct-17 10:00N 32°10' W 124°21'612.2
2017-Oct-17 09:29N 32°15' W 124°25'612.1
2017-Oct-17 08:59N 32°20' W 124°29'612.1
2017-Oct-17 08:30N 32°25' W 124°32'612.1
2017-Oct-17 08:00N 32°30' W 124°36'612.3
2017-Oct-17 07:30N 32°36' W 124°40'612.4
2017-Oct-17 07:00N 32°41' W 124°44'812.2
2017-Oct-17 06:23N 32°47' W 124°49'512.3
2017-Oct-17 06:00N 32°51' W 124°52'612.8
2017-Oct-17 05:30N 32°57' W 124°56'712.6
2017-Oct-17 04:59N 33°02' W 124°60'612.7
2017-Oct-17 04:30N 33°07' W 125°04'612.4
2017-Oct-17 04:00N 33°13' W 125°08'612.3
2017-Oct-17 03:30N 33°18' W 125°12'612.1
2017-Oct-17 03:00N 33°23' W 125°15'612.1
2017-Oct-17 02:29N 33°28' W 125°19'612.1
2017-Oct-17 02:00N 33°33' W 125°23'612.2
2017-Oct-17 01:29N 33°39' W 125°27'612.2
2017-Oct-17 01:00N 33°43' W 125°31'612.1
2017-Oct-17 00:30N 33°49' W 125°35'1612.0
2017-Oct-16 23:07N 34°02' W 125°46'111.6
2017-Oct-16 23:00N 34°04' W 125°47'611.7
2017-Oct-16 22:30N 34°09' W 125°50'911.8
2017-Oct-16 21:46N 34°16' W 125°56'9912.0
2017-Oct-16 13:28N 35°40' W 127°00'  
2017-Oct-13 11:52N 48°16' W 125°46'410.6
2017-Oct-13 11:28N 48°18' W 125°41'510.7
2017-Oct-13 11:00N 48°21' W 125°35'510.6
2017-Oct-13 10:30N 48°24' W 125°28'510.5
2017-Oct-13 10:00N 48°28' W 125°22'510.6
2017-Oct-13 09:29N 48°31' W 125°15'511.1
2017-Oct-13 09:00N 48°31' W 125°07'612.4
2017-Oct-13 08:30N 48°31' W 124°58'612.6
2017-Oct-13 08:00N 48°31' W 124°48'612.3
2017-Oct-13 07:30N 48°30' W 124°40'612.7
2017-Oct-13 07:00N 48°27' W 124°31'612.5
2017-Oct-13 06:30N 48°25' W 124°22'612.3
2017-Oct-13 06:00N 48°22' W 124°14'612.4
2017-Oct-13 05:30N 48°20' W 124°05'611.7
2017-Oct-13 05:00N 48°18' W 123°57'612.0
2017-Oct-13 04:30N 48°17' W 123°48'611.8
2017-Oct-13 04:00N 48°16' W 123°39'611.0
2017-Oct-13 03:30N 48°16' W 123°31'510.2
2017-Oct-13 03:00N 48°20' W 123°27'4 8.4
2017-Oct-13 02:30N 48°23' W 123°22'510.9
2017-Oct-13 02:00N 48°24' W 123°14'611.5
2017-Oct-13 01:31N 48°30' W 123°12'713.8
2017-Oct-13 01:00N 48°37' W 123°14'611.5
2017-Oct-13 00:30N 48°42' W 123°13'714.2
2017-Oct-13 00:00N 48°46' W 123°03'611.4
2017-Oct-12 23:30N 48°51' W 123°02'713.1
2017-Oct-12 23:00N 48°56' W 123°08'5 9.0
2017-Oct-12 22:30N 49°01' W 123°09'0 0.1
2017-Oct-12 19:10N 49°01' W 123°09'0 0.0
2017-Oct-12 18:58N 49°01' W 123°09'0 0.0
2017-Oct-12 18:28N 49°01' W 123°09'0 0.0
2017-Oct-12 15:49N 49°01' W 123°09'0 0.0
2017-Oct-12 15:19N 49°01' W 123°09'0 0.0
2017-Oct-12 08:07N 49°01' W 123°09'0 0.0
2017-Oct-12 07:43N 49°01' W 123°09'0 0.0
2017-Oct-12 07:28N 49°01' W 123°09'0 0.0
2017-Oct-12 03:22N 49°01' W 123°09'0 0.0
2017-Oct-12 01:04N 49°01' W 123°09'16 0.7
2017-Oct-10 23:58N 49°17' W 123°12'0 0.1
2017-Oct-10 23:28N 49°17' W 123°12'0 0.1
2017-Oct-10 22:58N 49°17' W 123°12'0 0.0
2017-Oct-10 22:28N 49°17' W 123°12'0 0.0
2017-Oct-10 21:58N 49°17' W 123°12'0 0.0
2017-Oct-10 21:28N 49°17' W 123°12'0 0.0
2017-Oct-10 20:58N 49°17' W 123°12'0 0.0
2017-Oct-10 20:28N 49°17' W 123°12'0 0.1
2017-Oct-10 19:58N 49°17' W 123°12'0 0.0
2017-Oct-10 19:28N 49°17' W 123°12'0 0.0
2017-Oct-10 18:58N 49°17' W 123°12'0 0.2
2017-Oct-10 18:22N 49°17' W 123°12'0 0.1
2017-Oct-10 17:58N 49°17' W 123°12'0 0.0
2017-Oct-10 17:28N 49°17' W 123°12'0 0.1
2017-Oct-10 16:58N 49°17' W 123°12'0 0.2
2017-Oct-10 16:28N 49°17' W 123°12'0 0.1
2017-Oct-10 15:58N 49°17' W 123°12'0 0.0
2017-Oct-10 15:28N 49°17' W 123°12'0 0.1
2017-Oct-10 14:58N 49°17' W 123°12'0 0.0
2017-Oct-10 13:58N 49°17' W 123°12'0 0.0
2017-Oct-10 13:28N 49°17' W 123°12'0 0.0
2017-Oct-10 12:55N 49°17' W 123°12'0 0.1
2017-Oct-10 12:28N 49°17' W 123°12'0 0.1
2017-Oct-10 11:55N 49°17' W 123°12'0 0.0
2017-Oct-10 11:28N 49°17' W 123°12'0 0.0
2017-Oct-10 10:58N 49°17' W 123°12'0 0.0
2017-Oct-10 10:28N 49°17' W 123°12'0 0.1
2017-Oct-10 09:58N 49°17' W 123°12'0 0.1
2017-Oct-10 09:28N 49°17' W 123°12'0 0.0
2017-Oct-10 08:58N 49°17' W 123°12'0 0.1
2017-Oct-10 08:28N 49°17' W 123°12'0 0.1
2017-Oct-10 07:58N 49°17' W 123°12'0 0.2
2017-Oct-10 07:28N 49°17' W 123°12'0 0.1
2017-Oct-10 06:58N 49°17' W 123°12'0 0.0
2017-Oct-10 06:28N 49°17' W 123°12'0 0.1
2017-Oct-10 05:58N 49°17' W 123°12'0 0.1
2017-Oct-10 05:25N 49°17' W 123°12'0 0.0
2017-Oct-10 04:58N 49°17' W 123°12'0 0.0
2017-Oct-10 04:28N 49°17' W 123°12'0 0.1
2017-Oct-10 03:58N 49°17' W 123°12'0 0.1
2017-Oct-10 03:28N 49°17' W 123°12'0 0.1
2017-Oct-10 02:58N 49°17' W 123°12'0 0.1
2017-Oct-10 02:28N 49°17' W 123°12'0 0.0
2017-Oct-10 01:58N 49°17' W 123°12'0 0.1
2017-Oct-10 01:28N 49°17' W 123°12'0 0.0
2017-Oct-10 00:58N 49°17' W 123°12'0 0.1
2017-Oct-10 00:28N 49°17' W 123°12'0 0.0
2017-Oct-09 23:58N 49°17' W 123°12'0 0.0
2017-Oct-09 23:28N 49°17' W 123°12'0 0.0
2017-Oct-09 22:58N 49°17' W 123°12'0 0.0
2017-Oct-09 22:28N 49°17' W 123°12'0 0.0
2017-Oct-09 21:58N 49°17' W 123°12'  

Dump ship's entire track history